Time;durP1;ratioP1;P1;durP2;ratioP2;P2;SDS_P1;SDS_P2;PMS_P1;PMS_P2;Temp;Humidity;BMP_temperature;BMP_pressure;BME280_temperature;BME280_humidity;BME280_pressure;Samples;Min_cycle;Max_cycle;Signal;HPM_P1;HPM_P2
2021/08/17 00:01:54;;;;;;;14.00;11.18;;;22.00;80.00;;;;;;4953788;29;20062;-73
2021/08/17 00:04:20;;;;;;;14.25;10.73;;;22.00;80.40;;;;;;4972486;28;20077;-73
2021/08/17 00:06:46;;;;;;;17.42;11.07;;;22.00;80.80;;;;;;4973085;28;20038;-74
2021/08/17 00:09:13;;;;;;;14.75;10.38;;;22.00;81.40;;;;;;4972854;28;20475;-73
2021/08/17 00:11:39;;;;;;;14.80;11.32;;;22.00;82.90;;;;;;4973400;28;20054;-74
2021/08/17 00:14:05;;;;;;;13.50;10.23;;;22.00;83.20;;;;;;4973084;28;20062;-73
2021/08/17 00:16:30;;;;;;;16.52;10.90;;;21.90;83.10;;;;;;4972703;28;20069;-74
2021/08/17 00:18:56;;;;;;;13.70;10.23;;;21.90;83.40;;;;;;4972887;28;20038;-73
2021/08/17 00:21:21;;;;;;;14.93;11.75;;;21.90;83.70;;;;;;4972953;28;20042;-73
2021/08/17 00:23:47;;;;;;;17.85;11.98;;;22.00;83.60;;;;;;4971347;28;20467;-73
2021/08/17 00:26:13;;;;;;;15.63;11.45;;;22.00;83.90;;;;;;4972248;28;20023;-75
2021/08/17 00:28:38;;;;;;;13.95;10.20;;;21.90;83.70;;;;;;4972448;28;20084;-73
2021/08/17 00:31:04;;;;;;;14.30;10.68;;;21.90;83.70;;;;;;4972548;28;20027;-74
2021/08/17 00:33:30;;;;;;;14.15;10.70;;;21.90;83.60;;;;;;4972954;28;20030;-74
2021/08/17 00:35:56;;;;;;;15.02;10.65;;;21.90;83.50;;;;;;4972310;28;20102;-75
2021/08/17 00:38:22;;;;;;;15.18;10.68;;;21.90;83.40;;;;;;4972932;28;20069;-74
2021/08/17 00:40:48;;;;;;;14.57;11.00;;;21.90;83.30;;;;;;4972827;28;20022;-73
2021/08/17 00:43:13;;;;;;;17.23;10.98;;;21.90;83.30;;;;;;4971618;28;20514;-74
2021/08/17 00:45:39;;;;;;;15.45;10.45;;;21.90;83.10;;;;;;4972507;28;20049;-74
2021/08/17 00:48:05;;;;;;;13.27;10.07;;;21.90;83.00;;;;;;4972118;28;20101;-74
2021/08/17 00:50:33;;;;;;;14.95;11.20;;;21.90;82.90;;;;;;4971973;28;20038;-75
2021/08/17 00:53:00;;;;;;;13.45;10.75;;;21.90;82.80;;;;;;4971963;28;20039;-74
2021/08/17 00:55:32;;;;;;;15.75;10.00;;;21.90;82.70;;;;;;4972055;28;20022;-74
2021/08/17 00:58:01;;;;;;;13.73;10.98;;;21.90;82.70;;;;;;4971800;28;20110;-74
2021/08/17 01:00:28;;;;;;;14.73;11.30;;;21.90;82.70;;;;;;4970996;28;20033;-74
2021/08/17 01:02:53;;;;;;;12.45;10.35;;;21.90;82.60;;;;;;4971926;28;20505;-74
2021/08/17 01:05:23;;;;;;;15.75;11.10;;;21.90;82.50;;;;;;4960742;28;20110;-74
2021/08/17 01:07:49;;;;;;;13.35;10.18;;;21.80;82.30;;;;;;4953501;29;20024;-75
2021/08/17 01:10:15;;;;;;;11.63;9.32;;;21.80;82.20;;;;;;4965135;28;20391;-75
2021/08/17 01:12:41;;;;;;;13.57;9.93;;;21.80;82.10;;;;;;4972535;28;20019;-75
2021/08/17 01:15:11;;;;;;;13.13;10.70;;;21.80;82.00;;;;;;4972139;28;20035;-73
2021/08/17 01:17:39;;;;;;;14.30;10.15;;;21.80;81.80;;;;;;4971541;28;20023;-74
2021/08/17 01:20:08;;;;;;;13.75;9.85;;;21.80;81.80;;;;;;4972155;28;20055;-73
2021/08/17 01:22:34;;;;;;;14.88;9.95;;;21.80;81.60;;;;;;4972136;28;20030;-73
2021/08/17 01:25:00;;;;;;;14.15;10.52;;;21.80;81.50;;;;;;4971729;28;20403;-74
2021/08/17 01:27:25;;;;;;;13.15;9.30;;;21.80;81.40;;;;;;4970028;28;20023;-73
2021/08/17 01:29:51;;;;;;;13.43;9.77;;;21.80;81.30;;;;;;4970756;28;20034;-74
2021/08/17 01:32:18;;;;;;;13.02;9.57;;;21.70;81.20;;;;;;4972325;28;20123;-74
2021/08/17 01:34:43;;;;;;;12.00;9.25;;;21.80;81.10;;;;;;4954378;28;20073;-73
2021/08/17 01:37:09;;;;;;;14.63;9.52;;;21.70;81.00;;;;;;4972029;28;20101;-74
2021/08/17 01:39:35;;;;;;;12.93;9.82;;;21.70;80.90;;;;;;4972210;28;20034;-73
2021/08/17 01:42:00;;;;;;;11.95;9.43;;;21.70;80.80;;;;;;4971253;28;20041;-74
2021/08/17 01:44:26;;;;;;;11.27;9.13;;;21.70;80.70;;;;;;4971571;28;20043;-73
2021/08/17 01:46:52;;;;;;;13.80;9.75;;;21.70;80.60;;;;;;4971952;28;20046;-73
2021/08/17 01:49:21;;;;;;;14.98;9.73;;;21.70;80.60;;;;;;4971663;28;20521;-73
2021/08/17 01:51:47;;;;;;;12.48;9.02;;;21.70;80.50;;;;;;4971816;28;20513;-73
2021/08/17 01:54:14;;;;;;;12.68;9.57;;;21.70;80.40;;;;;;4970600;28;20475;-74
2021/08/17 01:56:40;;;;;;;12.52;8.73;;;21.70;80.40;;;;;;4970470;28;20043;-74
2021/08/17 01:59:06;;;;;;;13.02;10.35;;;21.70;80.30;;;;;;4969715;28;20027;-74
2021/08/17 02:01:32;;;;;;;10.77;8.88;;;21.70;80.30;;;;;;4954449;28;20130;-74
2021/08/17 02:03:57;;;;;;;12.38;9.57;;;21.70;80.20;;;;;;4952388;28;20046;-74
2021/08/17 02:06:24;;;;;;;12.77;9.02;;;21.60;80.10;;;;;;4971627;28;20475;-73
2021/08/17 02:08:50;;;;;;;12.10;9.13;;;21.60;80.00;;;;;;4971871;28;20030;-73
2021/08/17 02:11:15;;;;;;;12.30;9.52;;;21.60;80.00;;;;;;4971632;28;20505;-73
2021/08/17 02:13:41;;;;;;;11.90;9.20;;;21.60;79.90;;;;;;4971896;28;20130;-73
2021/08/17 02:16:06;;;;;;;12.30;9.60;;;21.60;79.80;;;;;;4971460;28;20027;-73
2021/08/17 02:18:35;;;;;;;11.45;8.68;;;21.60;79.80;;;;;;4970393;28;20406;-74
2021/08/17 02:21:02;;;;;;;11.23;9.02;;;21.60;79.70;;;;;;4972434;28;20027;-74
2021/08/17 02:23:29;;;;;;;12.23;9.40;;;21.60;79.70;;;;;;4974521;28;20042;-73
2021/08/17 02:25:54;;;;;;;12.32;8.77;;;21.60;79.60;;;;;;4974430;28;20035;-73
2021/08/17 02:28:20;;;;;;;11.95;9.32;;;21.60;79.60;;;;;;4974129;28;20486;-73
2021/08/17 02:30:48;;;;;;;10.88;8.25;;;21.60;79.40;;;;;;4965227;28;20118;-73
2021/08/17 02:33:13;;;;;;;11.38;9.02;;;21.60;79.40;;;;;;4940140;28;20023;-73
2021/08/17 02:35:40;;;;;;;13.05;9.07;;;21.60;79.30;;;;;;4974902;28;20026;-74
2021/08/17 02:38:06;;;;;;;9.98;8.45;;;21.60;79.30;;;;;;4974678;28;20062;-74
2021/08/17 02:40:32;;;;;;;11.13;8.73;;;21.60;79.20;;;;;;4974745;28;20577;-74
2021/08/17 02:42:58;;;;;;;12.18;9.13;;;21.60;79.10;;;;;;4956962;28;20038;-73
2021/08/17 02:45:24;;;;;;;12.05;9.20;;;21.60;79.10;;;;;;4974694;28;20109;-74
2021/08/17 02:47:53;;;;;;;10.68;8.23;;;21.50;79.00;;;;;;4975269;28;20026;-73
2021/08/17 02:50:19;;;;;;;11.38;9.45;;;21.50;78.90;;;;;;4973467;28;20027;-74
2021/08/17 02:52:45;;;;;;;12.10;8.40;;;21.50;78.90;;;;;;4974613;28;20027;-74
2021/08/17 02:55:11;;;;;;;12.63;9.63;;;21.50;78.80;;;;;;4974512;28;20398;-74
2021/08/17 02:57:36;;;;;;;9.55;7.68;;;21.50;78.70;;;;;;4973749;28;20035;-73
2021/08/17 03:00:03;;;;;;;11.02;9.10;;;21.50;78.70;;;;;;4970155;28;20027;-74
2021/08/17 03:02:28;;;;;;;12.20;8.00;;;21.50;78.60;;;;;;4955241;29;20028;-74
2021/08/17 03:04:54;;;;;;;10.95;8.63;;;21.50;78.60;;;;;;4969799;28;20114;-73
2021/08/17 03:07:20;;;;;;;11.25;8.52;;;21.50;78.60;;;;;;4974270;28;20399;-76
2021/08/17 03:09:45;;;;;;;11.80;8.50;;;21.50;78.50;;;;;;4974568;28;20029;-75
2021/08/17 03:12:11;;;;;;;14.18;9.48;;;21.50;78.40;;;;;;4973640;28;20464;-73
2021/08/17 03:14:36;;;;;;;12.32;8.57;;;21.50;78.40;;;;;;4974425;28;20026;-73
2021/08/17 03:17:02;;;;;;;11.60;8.90;;;21.40;78.30;;;;;;4973816;28;20041;-75
2021/08/17 03:19:28;;;;;;;12.10;9.10;;;21.40;78.20;;;;;;4957016;28;20031;-75
2021/08/17 03:21:53;;;;;;;11.35;8.93;;;21.40;78.10;;;;;;4972396;28;20487;-74
2021/08/17 03:24:19;;;;;;;11.75;8.63;;;21.40;78.10;;;;;;4957010;28;20411;-74
2021/08/17 03:26:45;;;;;;;11.65;8.98;;;21.40;78.00;;;;;;4972279;28;20023;-74
2021/08/17 03:29:10;;;;;;;11.43;8.57;;;21.40;78.00;;;;;;4973060;28;20054;-75
2021/08/17 03:31:36;;;;;;;13.10;8.68;;;21.40;77.90;;;;;;4973935;28;20041;-75
2021/08/17 03:34:02;;;;;;;12.13;8.60;;;21.40;77.80;;;;;;4972052;28;20030;-75
2021/08/17 03:36:27;;;;;;;11.05;8.70;;;21.40;77.80;;;;;;4973676;28;20042;-75
2021/08/17 03:38:53;;;;;;;11.50;8.68;;;21.40;77.80;;;;;;4973686;28;20035;-75
2021/08/17 03:41:18;;;;;;;11.57;9.02;;;21.40;77.70;;;;;;4973811;28;20038;-74
2021/08/17 03:43:44;;;;;;;10.38;8.02;;;21.40;77.70;;;;;;4973591;28;20034;-74
2021/08/17 03:46:10;;;;;;;11.38;8.63;;;21.40;77.70;;;;;;4973185;28;20031;-75
2021/08/17 03:48:35;;;;;;;11.15;8.25;;;21.40;77.70;;;;;;4973825;28;20023;-75
2021/08/17 03:51:01;;;;;;;10.85;8.55;;;21.40;77.60;;;;;;4973056;28;20113;-74
2021/08/17 03:53:27;;;;;;;11.93;8.50;;;21.30;77.50;;;;;;4973450;28;20031;-74
2021/08/17 03:55:53;;;;;;;11.70;8.68;;;21.30;77.40;;;;;;4973209;28;20043;-73
2021/08/17 03:58:19;;;;;;;10.43;8.27;;;21.30;77.40;;;;;;4973405;28;20027;-73
2021/08/17 04:00:44;;;;;;;11.65;8.77;;;21.30;77.30;;;;;;4964165;28;20105;-74
2021/08/17 04:03:10;;;;;;;11.02;8.02;;;21.30;77.30;;;;;;4953790;29;20039;-73
2021/08/17 04:05:36;;;;;;;13.35;9.18;;;21.30;77.30;;;;;;4956353;28;20126;-74
2021/08/17 04:08:04;;;;;;;12.40;8.65;;;21.30;77.20;;;;;;4972733;28;20033;-74
2021/08/17 04:10:30;;;;;;;11.68;8.73;;;21.30;77.20;;;;;;4973159;28;20031;-75
2021/08/17 04:12:56;;;;;;;11.20;8.25;;;21.30;77.20;;;;;;4972804;28;20034;-74
2021/08/17 04:15:21;;;;;;;12.82;8.57;;;21.30;77.20;;;;;;4956231;28;20041;-73
2021/08/17 04:17:47;;;;;;;12.13;8.55;;;21.30;77.10;;;;;;4973587;28;20480;-74
2021/08/17 04:20:12;;;;;;;10.35;8.32;;;21.30;77.10;;;;;;4971725;28;20081;-74
2021/08/17 04:22:39;;;;;;;12.07;9.68;;;21.30;77.00;;;;;;4972826;28;20022;-74
2021/08/17 04:25:05;;;;;;;11.85;8.68;;;21.30;76.90;;;;;;4972144;28;20050;-73
2021/08/17 04:27:31;;;;;;;10.68;7.60;;;21.20;76.90;;;;;;4954078;28;20416;-73
2021/08/17 04:29:57;;;;;;;11.63;8.50;;;21.20;76.80;;;;;;4969000;28;20045;-73
2021/08/17 04:32:22;;;;;;;12.50;8.35;;;21.20;77.00;;;;;;4953747;29;20476;-74
2021/08/17 04:34:48;;;;;;;11.25;8.27;;;21.30;77.50;;;;;;4964970;28;20026;-74
2021/08/17 04:37:14;;;;;;;13.00;9.02;;;21.20;76.70;;;;;;4972208;28;20058;-74
2021/08/17 04:39:40;;;;;;;11.55;7.57;;;21.20;76.70;;;;;;4972540;28;20106;-73
2021/08/17 04:42:05;;;;;;;11.68;8.98;;;21.20;76.60;;;;;;4970847;28;20035;-74
2021/08/17 04:44:31;;;;;;;13.15;9.50;;;21.20;76.60;;;;;;4971927;28;20038;-74
2021/08/17 04:46:57;;;;;;;11.43;8.00;;;21.20;76.60;;;;;;4971846;28;20034;-74
2021/08/17 04:49:22;;;;;;;9.90;8.07;;;21.20;76.40;;;;;;4972378;28;20487;-73
2021/08/17 04:51:48;;;;;;;12.13;7.88;;;21.20;76.40;;;;;;4972967;28;20106;-74
2021/08/17 04:54:14;;;;;;;11.48;8.13;;;21.20;76.40;;;;;;4972154;28;20113;-75
2021/08/17 04:56:39;;;;;;;9.45;7.53;;;21.20;76.40;;;;;;4972460;28;20106;-73
2021/08/17 04:59:05;;;;;;;10.70;8.15;;;21.20;76.30;;;;;;4971565;28;20031;-73
2021/08/17 05:01:31;;;;;;;11.43;8.10;;;21.10;76.30;;;;;;4972342;28;20019;-74
2021/08/17 05:03:58;;;;;;;10.88;8.23;;;21.20;76.30;;;;;;4954825;28;20509;-74
2021/08/17 05:06:23;;;;;;;10.20;8.00;;;21.20;76.30;;;;;;4968749;28;20479;-74
2021/08/17 05:08:49;;;;;;;10.43;8.60;;;21.10;76.20;;;;;;4972320;28;20031;-74
2021/08/17 05:11:15;;;;;;;9.15;6.97;;;21.10;76.20;;;;;;4971761;28;20037;-74
2021/08/17 05:13:41;;;;;;;12.13;8.13;;;21.10;76.10;;;;;;4972383;28;20579;-74
2021/08/17 05:16:07;;;;;;;10.45;7.85;;;21.10;76.10;;;;;;4972151;28;20030;-73
2021/08/17 05:18:33;;;;;;;9.80;7.78;;;21.10;76.10;;;;;;4955168;28;20100;-74
2021/08/17 05:21:02;;;;;;;9.90;8.00;;;21.10;76.10;;;;;;4957848;28;20483;-74
2021/08/17 05:23:29;;;;;;;11.45;8.38;;;21.10;76.00;;;;;;4971937;28;20038;-73
2021/08/17 05:25:55;;;;;;;10.70;8.00;;;21.10;76.00;;;;;;4971851;28;20035;-73
2021/08/17 05:28:21;;;;;;;10.68;8.38;;;21.10;75.90;;;;;;4971202;28;20085;-74
2021/08/17 05:30:48;;;;;;;10.68;7.88;;;21.10;76.50;;;;;;4972280;28;20019;-74
2021/08/17 05:33:13;;;;;;;12.15;7.68;;;21.10;75.90;;;;;;4972073;28;20015;-73
2021/08/17 05:35:40;;;;;;;11.35;7.93;;;21.10;75.90;;;;;;4971692;28;20483;-73
2021/08/17 05:38:06;;;;;;;10.85;8.48;;;21.10;75.80;;;;;;4972047;28;20058;-75
2021/08/17 05:40:32;;;;;;;11.38;8.52;;;21.10;75.80;;;;;;4971944;28;20146;-73
2021/08/17 05:42:57;;;;;;;9.75;7.07;;;21.10;75.90;;;;;;4969961;28;20030;-73
2021/08/17 05:45:23;;;;;;;10.13;7.55;;;21.00;75.80;;;;;;4971765;28;20066;-73
2021/08/17 05:47:49;;;;;;;10.02;8.13;;;21.00;75.70;;;;;;4955713;28;20443;-73
2021/08/17 05:50:16;;;;;;;10.18;7.57;;;21.00;75.70;;;;;;4970623;28;20033;-73
2021/08/17 05:52:41;;;;;;;10.43;7.60;;;21.00;75.70;;;;;;4971594;28;20379;-74
2021/08/17 05:55:09;;;;;;;9.98;7.80;;;21.00;75.60;;;;;;4971871;28;20384;-73
2021/08/17 05:57:35;;;;;;;11.65;8.00;;;21.00;75.70;;;;;;4957492;28;20114;-74
2021/08/17 06:00:06;;;;;;;10.68;8.32;;;21.00;75.60;;;;;;4972788;28;20114;-74
2021/08/17 06:02:32;;;;;;;10.15;7.47;;;21.00;75.60;;;;;;4956427;29;20034;-73
2021/08/17 06:04:58;;;;;;;10.82;7.50;;;21.00;75.60;;;;;;4956011;29;20118;-73
2021/08/17 06:07:23;;;;;;;9.90;7.60;;;21.00;75.60;;;;;;4972685;28;20031;-73
2021/08/17 06:09:51;;;;;;;11.55;7.88;;;21.00;75.60;;;;;;4975556;28;20070;-74
2021/08/17 06:12:16;;;;;;;10.40;7.80;;;21.00;75.60;;;;;;4975059;28;20026;-74
2021/08/17 06:14:42;;;;;;;11.00;7.65;;;21.00;75.60;;;;;;4973319;28;20494;-74
2021/08/17 06:17:08;;;;;;;10.40;7.40;;;21.00;75.60;;;;;;4974840;28;20038;-73
2021/08/17 06:19:33;;;;;;;10.57;7.57;;;21.00;75.50;;;;;;4975426;28;20449;-73
2021/08/17 06:21:59;;;;;;;9.00;7.00;;;21.00;75.60;;;;;;4975217;28;20022;-73
2021/08/17 06:24:25;;;;;;;11.25;7.85;;;21.00;75.60;;;;;;4974975;28;20038;-73
2021/08/17 06:26:50;;;;;;;9.68;7.50;;;21.00;75.60;;;;;;4974602;28;20698;-73
2021/08/17 06:29:16;;;;;;;9.18;6.53;;;21.00;75.60;;;;;;4974381;28;20121;-73
2021/08/17 06:31:42;;;;;;;9.93;7.88;;;21.00;75.60;;;;;;4957867;28;20030;-72
2021/08/17 06:34:08;;;;;;;11.32;8.40;;;21.00;75.70;;;;;;4964137;28;20066;-72
2021/08/17 06:36:35;;;;;;;31.52;9.35;;;21.00;76.00;;;;;;4973102;28;20117;-73
2021/08/17 06:39:04;;;;;;;11.93;7.50;;;21.10;76.70;;;;;;4974508;28;20031;-72
2021/08/17 06:41:30;;;;;;;12.57;7.35;;;21.20;75.80;;;;;;4974631;28;20035;-73
2021/08/17 06:43:56;;;;;;;15.50;7.78;;;21.30;76.10;;;;;;4973953;28;20105;-72
2021/08/17 06:46:22;;;;;;;14.48;8.15;;;21.30;76.20;;;;;;4959885;28;20031;-73
2021/08/17 06:48:47;;;;;;;13.77;8.60;;;21.30;76.20;;;;;;4975253;28;20478;-71
2021/08/17 06:51:14;;;;;;;13.18;8.80;;;21.30;76.40;;;;;;4974588;28;20090;-73
2021/08/17 06:53:39;;;;;;;12.98;9.45;;;21.20;76.30;;;;;;4970275;28;20035;-73
2021/08/17 06:56:05;;;;;;;15.02;9.13;;;21.20;76.50;;;;;;4973559;28;20027;-72
2021/08/17 06:58:31;;;;;;;14.30;8.70;;;21.20;76.70;;;;;;4970376;28;20034;-73
2021/08/17 07:00:57;;;;;;;15.07;8.20;;;21.20;76.70;;;;;;4962511;28;20027;-73
2021/08/17 07:03:23;;;;;;;13.63;9.05;;;21.30;77.00;;;;;;4963265;28;20034;-74
2021/08/17 07:05:48;;;;;;;15.65;9.25;;;21.30;77.20;;;;;;4964407;28;20054;-72
2021/08/17 07:08:14;;;;;;;17.42;9.90;;;21.30;77.20;;;;;;4961874;28;20070;-72
2021/08/17 07:10:41;;;;;;;16.80;9.90;;;21.30;77.20;;;;;;4961187;28;20030;-73
2021/08/17 07:13:06;;;;;;;15.05;9.77;;;21.30;77.10;;;;;;4954884;28;20038;-72
2021/08/17 07:15:32;;;;;;;12.30;8.65;;;21.30;77.20;;;;;;4945089;28;20030;-73
2021/08/17 07:17:58;;;;;;;18.77;9.70;;;21.30;77.10;;;;;;4973040;28;20518;-77
2021/08/17 07:20:23;;;;;;;15.38;8.93;;;21.30;76.80;;;;;;4974600;28;20501;-72
2021/08/17 07:22:49;;;;;;;13.63;8.43;;;21.30;76.90;;;;;;4973942;28;20387;-72
2021/08/17 07:25:15;;;;;;;14.23;8.60;;;21.30;77.00;;;;;;4963656;28;20044;-73
2021/08/17 07:27:42;;;;;;;14.88;9.55;;;21.30;77.00;;;;;;4988457;28;20037;-72
2021/08/17 07:30:12;;;;;;;18.33;10.50;;;21.30;77.30;;;;;;4992972;28;20098;-72
2021/08/17 07:32:39;;;;;;;23.67;15.85;;;21.30;77.20;;;;;;4987235;28;20046;-73
2021/08/17 07:35:07;;;;;;;17.35;10.30;;;21.30;77.40;;;;;;4973741;28;20030;-73
2021/08/17 07:37:33;;;;;;;17.38;12.00;;;21.30;77.00;;;;;;4962979;28;20059;-73
2021/08/17 07:39:59;;;;;;;15.57;10.77;;;21.30;77.00;;;;;;4954304;29;20027;-73
2021/08/17 07:42:25;;;;;;;16.55;10.50;;;21.40;77.00;;;;;;4954563;28;20043;-73
2021/08/17 07:44:50;;;;;;;17.10;10.82;;;21.40;77.00;;;;;;4954767;28;20443;-72
2021/08/17 07:47:16;;;;;;;15.90;10.43;;;21.40;77.00;;;;;;4953766;29;20023;-73
2021/08/17 07:49:42;;;;;;;13.77;9.32;;;21.40;76.90;;;;;;4962603;28;20035;-73
2021/08/17 07:52:07;;;;;;;14.52;9.80;;;21.40;76.80;;;;;;4973400;28;20085;-73
2021/08/17 07:54:33;;;;;;;15.35;8.93;;;21.40;76.60;;;;;;4973461;28;20031;-72
2021/08/17 07:56:59;;;;;;;12.30;9.00;;;21.40;76.40;;;;;;4984877;28;20041;-73
2021/08/17 07:59:24;;;;;;;13.32;8.68;;;21.40;76.30;;;;;;4992677;28;20537;-73
2021/08/17 08:01:50;;;;;;;13.55;8.25;;;21.40;76.20;;;;;;4970071;28;20038;-73
2021/08/17 08:04:15;;;;;;;14.30;9.57;;;21.40;76.20;;;;;;4973131;28;20043;-73
2021/08/17 08:06:41;;;;;;;14.20;8.30;;;21.40;76.10;;;;;;4974865;28;20368;-73
2021/08/17 08:09:07;;;;;;;13.70;8.52;;;21.40;76.10;;;;;;4992616;28;20037;-73
2021/08/17 08:11:32;;;;;;;12.43;8.32;;;21.40;76.10;;;;;;4992548;28;20065;-73
2021/08/17 08:13:58;;;;;;;12.88;8.35;;;21.40;76.10;;;;;;4969702;28;20038;-73
2021/08/17 08:16:26;;;;;;;12.25;8.32;;;21.40;76.00;;;;;;4953996;29;20031;-72
2021/08/17 08:18:52;;;;;;;12.07;7.47;;;21.50;76.00;;;;;;4960877;28;20030;-73
2021/08/17 08:21:18;;;;;;;9.93;7.47;;;21.50;76.00;;;;;;4973350;28;20073;-73
2021/08/17 08:23:44;;;;;;;10.65;7.45;;;21.50;76.00;;;;;;4973045;28;20085;-73
2021/08/17 08:26:11;;;;;;;14.50;8.07;;;21.50;75.80;;;;;;4985630;28;20485;-73
2021/08/17 08:28:36;;;;;;;11.80;7.93;;;21.50;75.90;;;;;;4992164;28;20037;-73
2021/08/17 08:31:02;;;;;;;10.75;7.68;;;21.50;75.80;;;;;;4992063;28;20030;-73
2021/08/17 08:33:28;;;;;;;11.80;7.90;;;21.50;75.70;;;;;;4988213;28;20030;-73
2021/08/17 08:35:54;;;;;;;12.27;7.63;;;21.50;75.50;;;;;;4972748;28;20019;-73
2021/08/17 08:38:19;;;;;;;9.85;7.63;;;21.50;75.50;;;;;;4973042;28;20089;-73
2021/08/17 08:40:47;;;;;;;12.20;6.53;;;21.60;75.60;;;;;;4972698;28;20015;-72
2021/08/17 08:43:16;;;;;;;10.95;7.22;;;21.60;75.50;;;;;;4972186;28;20443;-73
2021/08/17 08:45:43;;;;;;;12.57;7.05;;;21.60;75.40;;;;;;4989691;28;20797;-73
2021/08/17 08:48:12;;;;;;;7.95;6.18;;;21.60;75.30;;;;;;4992059;28;20041;-73
2021/08/17 08:50:40;;;;;;;10.35;6.50;;;21.60;75.30;;;;;;4991976;28;20037;-73
2021/08/17 08:53:06;;;;;;;9.00;6.22;;;21.60;75.30;;;;;;4991805;28;20498;-73
2021/08/17 08:55:31;;;;;;;8.02;5.70;;;21.60;75.30;;;;;;4992009;28;20096;-73
2021/08/17 08:57:57;;;;;;;10.25;5.95;;;21.60;75.40;;;;;;4986442;28;20107;-73
2021/08/17 09:00:23;;;;;;;9.88;6.03;;;21.60;75.40;;;;;;4972524;28;20035;-72
2021/08/17 09:02:51;;;;;;;8.25;5.88;;;21.60;75.40;;;;;;4972765;28;20023;-73
2021/08/17 09:05:17;;;;;;;9.05;5.82;;;21.50;76.00;;;;;;4972059;28;20129;-73
2021/08/17 09:07:46;;;;;;;8.50;5.53;;;21.50;75.30;;;;;;4972301;28;20045;-73
2021/08/17 09:10:17;;;;;;;8.80;6.07;;;21.60;75.40;;;;;;4971640;28;20533;-73
2021/08/17 09:12:44;;;;;;;9.43;6.13;;;21.50;75.30;;;;;;4961428;28;20387;-72
2021/08/17 09:15:28;;;;;;;9.05;5.45;;;21.50;75.20;;;;;;4965007;28;20129;-72
2021/08/17 09:17:57;;;;;;;9.55;5.78;;;21.60;75.30;;;;;;4975074;28;20454;-72
2021/08/17 09:20:40;;;;;;;7.22;4.90;;;21.60;75.30;;;;;;4971647;28;20022;-73
2021/08/17 09:23:25;;;;;;;9.38;5.10;;;21.60;75.30;;;;;;4977661;28;20089;-71
2021/08/17 09:25:55;;;;;;;10.95;5.25;;;21.60;75.30;;;;;;4974739;28;20390;-71
2021/08/17 09:28:37;;;;;;;8.85;5.50;;;21.50;75.20;;;;;;4991967;28;20022;-72
2021/08/17 09:31:38;;;;;;;8.80;4.70;;;21.60;75.20;;;;;;4982375;28;20019;-72
2021/08/17 09:34:07;;;;;;;6.68;4.70;;;21.60;75.30;;;;;;4973194;28;20047;-72
2021/08/17 09:36:42;;;;;;;8.70;5.30;;;21.60;75.00;;;;;;4971357;28;20016;-73
2021/08/17 09:39:09;;;;;;;7.57;5.00;;;21.60;75.00;;;;;;4964069;28;20033;-72
2021/08/17 09:41:35;;;;;;;6.13;4.72;;;21.60;75.00;;;;;;4995558;28;20026;-71
2021/08/17 09:44:06;;;;;;;7.80;4.60;;;21.60;75.00;;;;;;4995255;28;20038;-72
2021/08/17 09:46:37;;;;;;;7.22;4.57;;;21.50;75.10;;;;;;4995451;28;20027;-72
2021/08/17 09:49:25;;;;;;;6.38;4.40;;;21.50;75.80;;;;;;4987662;28;20031;-72
2021/08/17 09:51:51;;;;;;;7.15;4.32;;;21.50;75.10;;;;;;4976073;28;20022;-72
2021/08/17 09:54:19;;;;;;;8.50;4.80;;;21.50;75.20;;;;;;4972393;28;20380;-72
2021/08/17 09:57:02;;;;;;;6.80;4.93;;;21.50;75.20;;;;;;4957570;28;20030;-73
2021/08/17 09:59:30;;;;;;;6.35;4.20;;;21.50;75.20;;;;;;4975839;28;20391;-73
2021/08/17 10:01:57;;;;;;;6.20;3.83;;;21.50;75.30;;;;;;4958156;28;20034;-73
2021/08/17 10:04:24;;;;;;;6.57;4.68;;;21.50;75.30;;;;;;4975579;28;20058;-73
2021/08/17 10:06:51;;;;;;;6.10;4.00;;;21.50;75.30;;;;;;4971276;28;20130;-72
2021/08/17 10:09:18;;;;;;;7.68;4.20;;;21.50;75.20;;;;;;4973093;28;20031;-73
2021/08/17 10:11:44;;;;;;;6.32;4.30;;;21.50;75.20;;;;;;4968716;28;20023;-73
2021/08/17 10:14:11;;;;;;;7.15;4.22;;;21.50;75.20;;;;;;4958541;28;20030;-72
2021/08/17 10:16:37;;;;;;;6.28;4.38;;;21.50;75.20;;;;;;4968934;28;20419;-72
2021/08/17 10:19:04;;;;;;;7.45;4.35;;;21.50;75.10;;;;;;4974729;28;20443;-73
2021/08/17 10:21:32;;;;;;;6.30;3.97;;;21.50;75.10;;;;;;4974135;28;20055;-73
2021/08/17 10:23:58;;;;;;;6.53;4.45;;;21.50;75.10;;;;;;4974022;28;20046;-72
2021/08/17 10:26:34;;;;;;;5.72;4.00;;;21.50;75.40;;;;;;4968451;28;20028;-73
2021/08/17 10:28:59;;;;;;;;;;;21.50;75.30;;;;;;4964174;28;20030;-72
2021/08/17 10:31:32;;;;;;;6.28;3.83;;;21.50;75.30;;;;;;4964912;28;19952;-72
2021/08/17 10:34:08;;;;;;;6.32;3.92;;;21.50;75.30;;;;;;4965634;28;20046;-73
2021/08/17 10:36:42;;;;;;;6.32;3.60;;;21.50;75.30;;;;;;4965397;28;20033;-74
2021/08/17 10:39:07;;;;;;;4.90;3.55;;;21.50;75.30;;;;;;4968332;28;20045;-73
2021/08/17 10:41:36;;;;;;;9.43;3.53;;;21.50;75.40;;;;;;4973571;28;20110;-81
2021/08/17 10:44:06;;;;;;;9.05;3.65;;;;;;;;;;4959840;28;20039;-79
2021/08/17 10:46:40;;;;;;;6.30;3.75;;;;;;;;;;4973382;28;20023;-80
2021/08/17 10:49:26;;;;;;;6.90;3.30;;;;;;;;;;4974621;28;20368;-81
2021/08/17 10:51:53;;;;;;;5.65;3.55;;;;;;;;;;4971197;28;20035;-80
2021/08/17 10:54:19;;;;;;;4.93;3.00;;;;;;;;;;4965004;28;20038;-81
2021/08/17 10:56:50;;;;;;;7.43;3.72;;;;;;;;;;4966123;28;20031;-81
2021/08/17 10:59:34;;;;;;;6.50;3.53;;;;;;;;;;4966840;28;20058;-81
2021/08/17 11:02:00;;;;;;;7.18;3.50;;;;;;;;;;4962153;28;20106;-81
2021/08/17 11:04:36;;;;;;;5.10;3.83;;;;;;;;;;4961532;28;20126;-80
2021/08/17 11:07:03;;;;;;;5.03;3.25;;;;;;;;;;4963426;28;20067;-80
2021/08/17 11:09:39;;;;;;;6.43;3.40;;;;;;;;;;4964092;28;20026;-81
2021/08/17 11:12:05;;;;;;;;;;;;;;;;;;4972149;28;20019;-82
2021/08/17 11:14:32;;;;;;;7.30;4.53;;;;;;;;;;4966300;28;19913;-81
2021/08/17 11:17:02;;;;;;;7.28;4.18;;;;;;;;;;4964637;28;20027;-81
2021/08/17 11:19:33;;;;;;;5.60;3.30;;;;;;;;;;4962894;28;20019;-81
2021/08/17 11:22:03;;;;;;;7.88;3.53;;;;;;;;;;4965498;28;20082;-81
2021/08/17 11:24:34;;;;;;;4.35;2.55;;;21.40;75.50;;;;;;4965319;28;20046;-81
2021/08/17 11:27:17;;;;;;;5.53;3.35;;;21.30;78.50;;;;;;4947074;28;20035;-80
2021/08/17 11:29:56;;;;;;;5.65;3.47;;;21.30;78.50;;;;;;4960205;28;20032;-80
2021/08/17 11:32:30;;;;;;;5.97;3.40;;;21.40;78.50;;;;;;4964063;28;20098;-80
2021/08/17 11:35:08;;;;;;;4.40;2.90;;;21.40;78.40;;;;;;4963292;28;20082;-80
2021/08/17 11:37:36;;;;;;;5.75;3.17;;;21.40;78.10;;;;;;4960371;28;20394;-81
2021/08/17 11:40:04;;;;;;;6.90;3.67;;;21.40;78.10;;;;;;4966571;28;20089;-81
2021/08/17 11:42:35;;;;;;;4.05;2.65;;;21.40;78.70;;;;;;4974504;28;20121;-80
2021/08/17 11:45:10;;;;;;;5.90;3.80;;;21.40;77.90;;;;;;4960849;28;20039;-82
2021/08/17 11:47:37;;;;;;;7.20;2.87;;;21.40;78.10;;;;;;4961920;28;20027;-82
2021/08/17 11:50:06;;;;;;;6.82;3.58;;;21.40;78.40;;;;;;4962359;28;20031;-81
2021/08/17 11:52:41;;;;;;;4.80;2.90;;;21.40;78.40;;;;;;4961253;28;20015;-81
2021/08/17 11:55:13;;;;;;;7.03;2.97;;;21.40;78.40;;;;;;4960286;28;20031;-81
2021/08/17 11:57:43;;;;;;;5.10;3.03;;;21.40;78.40;;;;;;4961309;28;20270;-82
2021/08/17 12:00:14;;;;;;;5.50;3.05;;;21.40;78.40;;;;;;4958502;28;20031;-81
2021/08/17 12:02:46;;;;;;;7.03;3.35;;;21.40;78.40;;;;;;4963439;28;20098;-81
2021/08/17 12:05:17;;;;;;;5.30;3.05;;;21.40;78.50;;;;;;4964038;28;20380;-81
2021/08/17 12:07:45;;;;;;;4.35;3.03;;;21.40;78.30;;;;;;4961560;28;20023;-81
2021/08/17 12:10:12;;;;;;;4.55;2.67;;;21.40;78.10;;;;;;4961714;28;20062;-80
2021/08/17 12:13:08;;;;;;;4.43;2.97;;;21.50;78.40;;;;;;4962666;28;20050;-79
2021/08/17 12:15:33;;;;;;;6.88;3.15;;;21.50;78.30;;;;;;4962030;28;20023;-80
2021/08/17 12:18:04;;;;;;;4.85;3.38;;;21.50;78.20;;;;;;4961153;28;20037;-80
2021/08/17 12:20:31;;;;;;;5.43;2.90;;;21.50;78.10;;;;;;4960866;28;20399;-79
2021/08/17 12:22:56;;;;;;;6.53;3.15;;;21.50;78.00;;;;;;4946822;28;20034;-80
2021/08/17 12:25:27;;;;;;;4.38;2.88;;;21.50;77.90;;;;;;4972408;28;20042;-80
2021/08/17 12:27:58;;;;;;;4.80;2.50;;;21.50;77.80;;;;;;4956696;28;20507;-80
2021/08/17 12:30:32;;;;;;;4.30;2.85;;;21.50;77.80;;;;;;4953647;28;20082;-80
2021/08/17 12:32:59;;;;;;;4.80;2.58;;;21.50;78.10;;;;;;4967813;28;20103;-80
2021/08/17 12:35:27;;;;;;;4.78;2.88;;;21.50;77.90;;;;;;4976190;28;20027;-80
2021/08/17 12:37:53;;;;;;;5.20;3.20;;;21.50;77.90;;;;;;4975149;28;20084;-81
2021/08/17 12:40:19;;;;;;;4.72;3.40;;;21.50;77.90;;;;;;4969922;28;20483;-80
2021/08/17 12:42:46;;;;;;;5.40;2.92;;;21.50;77.80;;;;;;4970397;28;20058;-80
2021/08/17 12:45:28;;;;;;;3.97;2.90;;;21.50;77.70;;;;;;4970055;28;20597;-80
2021/08/17 12:47:59;;;;;;;4.65;2.60;;;21.50;77.50;;;;;;4986642;28;20030;-79